Time;durP1;ratioP1;P1;durP2;ratioP2;P2;SDS_P1;SDS_P2;PMS_P1;PMS_P2;Temp;Humidity;BMP_temperature;BMP_pressure;BME280_temperature;BME280_humidity;BME280_pressure;Samples;Min_cycle;Max_cycle;Signal;HPM_P1;HPM_P2
2021/01/23 00:01:29;;;;;;;;;;;2.70;99.90;;;;;;5006786;28;19969;-76
2021/01/23 00:03:55;;;;;;;;;;;2.70;99.90;;;;;;4997642;28;19936;-76
2021/01/23 00:06:22;;;;;;;;;;;2.70;99.90;;;;;;4996289;28;20282;-76
2021/01/23 00:08:48;;;;;;;;;;;2.70;99.90;;;;;;4996224;28;20416;-76
2021/01/23 00:11:14;;;;;;;;;;;2.70;99.90;;;;;;4996872;28;19991;-76
2021/01/23 00:13:41;;;;;;;;;;;2.70;99.90;;;;;;4995774;28;19926;-76
2021/01/23 00:16:08;;;;;;;;;;;2.70;99.90;;;;;;4995515;28;19926;-76
2021/01/23 00:18:34;;;;;;;;;;;2.70;99.90;;;;;;4995335;28;20371;-76
2021/01/23 00:21:01;;;;;;;;;;;2.60;99.90;;;;;;4995478;28;20343;-76
2021/01/23 00:23:27;;;;;;;;;;;2.70;99.90;;;;;;4995521;28;19927;-76
2021/01/23 00:25:53;;;;;;;;;;;2.60;99.90;;;;;;4995109;28;20267;-76
2021/01/23 00:28:20;;;;;;;;;;;2.60;99.90;;;;;;4995190;28;19932;-76
2021/01/23 00:30:47;;;;;;;;;;;2.60;99.90;;;;;;4995237;28;20417;-76
2021/01/23 00:33:13;;;;;;;;;;;2.60;99.90;;;;;;4995173;28;19926;-76
2021/01/23 00:35:39;;;;;;;;;;;2.60;99.90;;;;;;4995139;28;19926;-76
2021/01/23 00:38:06;;;;;;;;;;;2.60;99.90;;;;;;4995075;28;19933;-76
2021/01/23 00:40:32;;;;;;;;;;;2.60;99.90;;;;;;4994957;28;20542;-76
2021/01/23 00:42:59;;;;;;;;;;;2.60;99.90;;;;;;4994787;28;20362;-76
2021/01/23 00:45:25;;;;;;;;;;;2.60;99.90;;;;;;4995053;28;19937;-76
2021/01/23 00:47:52;;;;;;;;;;;2.60;99.90;;;;;;4995082;28;19934;-76
2021/01/23 00:50:18;;;;;;;;;;;2.70;99.90;;;;;;4998182;28;19929;-76
2021/01/23 00:52:45;;;;;;;;;;;2.70;99.90;;;;;;4998991;28;19926;-76
2021/01/23 00:55:12;;;;;;;;;;;2.70;99.90;;;;;;4998992;28;20266;-76
2021/01/23 00:57:38;;;;;;;;;;;2.70;99.90;;;;;;4998901;28;20274;-76
2021/01/23 01:00:05;;;;;;;;;;;2.70;99.90;;;;;;4998564;28;20354;-76
2021/01/23 01:02:31;;;;;;;;;;;2.70;99.90;;;;;;4998786;28;19933;-76
2021/01/23 01:04:59;;;;;;;;;;;2.70;99.90;;;;;;4998979;28;19926;-76
2021/01/23 01:07:25;;;;;;;;;;;2.70;99.90;;;;;;4998467;28;19940;-76
2021/01/23 01:09:51;;;;;;;;;;;2.70;99.90;;;;;;4998337;28;19936;-76
2021/01/23 01:12:18;;;;;;;;;;;2.70;99.90;;;;;;4998240;28;19925;-76
2021/01/23 01:14:44;;;;;;;;;;;2.70;99.90;;;;;;4999124;28;19956;-76
2021/01/23 01:17:10;;;;;;;;;;;2.70;99.90;;;;;;4999940;28;20359;-76
2021/01/23 01:19:37;;;;;;;;;;;2.70;99.90;;;;;;4998144;28;19925;-76
2021/01/23 01:22:04;;;;;;;;;;;2.80;99.90;;;;;;4998168;28;19926;-76
2021/01/23 01:24:30;;;;;;;;;;;2.80;99.90;;;;;;4998060;28;19929;-76
2021/01/23 01:26:57;;;;;;;;;;;2.80;99.90;;;;;;4998003;28;19932;-76
2021/01/23 01:29:23;;;;;;;;;;;2.80;99.90;;;;;;4997889;28;19926;-76
2021/01/23 01:31:49;;;;;;;;;;;2.80;99.90;;;;;;4998050;28;19926;-75
2021/01/23 01:34:15;;;;;;;;;;;2.80;99.90;;;;;;4997827;28;20377;-76
2021/01/23 01:36:42;;;;;;;;;;;2.80;99.90;;;;;;4997943;28;19936;-76
2021/01/23 01:39:09;;;;;;;;;;;2.80;99.90;;;;;;4997409;28;19926;-76
2021/01/23 01:41:36;;;;;;;;;;;2.80;99.90;;;;;;4998023;28;19930;-76
2021/01/23 01:44:03;;;;;;;;;;;2.90;99.90;;;;;;4997806;28;19926;-76
2021/01/23 01:46:29;;;;;;;;;;;2.80;99.90;;;;;;4998314;28;19977;-76
2021/01/23 01:48:59;;;;;;;;;;;2.80;99.90;;;;;;4998778;28;19933;-76
2021/01/23 01:51:25;;;;;;;;;;;2.70;99.90;;;;;;5000029;28;19940;-77
2021/01/23 01:53:53;;;;;;;;;;;2.70;99.90;;;;;;5001241;28;19925;-77
2021/01/23 01:56:20;;;;;;;;;;;2.70;99.90;;;;;;5000888;28;19926;-77
2021/01/23 01:58:47;;;;;;;;;;;2.60;99.90;;;;;;5000483;28;19934;-77
2021/01/23 02:01:13;;;;;;;;;;;2.60;99.90;;;;;;5000098;28;19926;-77
2021/01/23 02:03:42;;;;;;;;;;;2.60;99.90;;;;;;5000512;28;19930;-77
2021/01/23 02:06:11;;;;;;;;;;;2.60;99.90;;;;;;4999966;28;20369;-77
2021/01/23 02:08:39;;;;;;;;;;;2.60;99.90;;;;;;5000876;28;19936;-77
2021/01/23 02:11:09;;;;;;;;;;;2.50;99.90;;;;;;5001923;28;19929;-77
2021/01/23 02:13:37;;;;;;;;;;;2.50;99.90;;;;;;5003646;28;19936;-77
2021/01/23 02:16:04;;;;;;;;;;;2.40;99.90;;;;;;5002429;28;20343;-77
2021/01/23 02:18:33;;;;;;;;;;;2.20;99.90;;;;;;5006394;28;19926;-77
2021/01/23 02:21:14;;;;;;;;;;;2.10;99.90;;;;;;5004698;28;19936;-77
2021/01/23 02:23:45;;;;;;;;;;;-0.30;99.90;;;;;;5006331;28;19926;-77
2021/01/23 02:26:12;;;;;;;;;;;1.90;99.90;;;;;;5001084;28;19926;-77
2021/01/23 02:28:44;;;;;;;;;;;1.90;99.90;;;;;;4998570;28;19926;-77
2021/01/23 02:31:13;;;;;;;;;;;1.90;99.90;;;;;;4998644;28;20331;-76
2021/01/23 02:33:39;;;;;;;;;;;2.00;99.90;;;;;;4997936;28;19926;-76
2021/01/23 02:36:06;;;;;;;;;;;2.00;99.90;;;;;;4997254;28;19944;-76
2021/01/23 02:38:33;;;;;;;;;;;2.00;99.90;;;;;;4997034;28;19944;-77
2021/01/23 02:40:59;;;;;;;;;;;2.10;99.90;;;;;;4997517;28;19944;-77
2021/01/23 02:43:26;;;;;;;;;;;2.10;99.90;;;;;;4997944;28;19929;-77
2021/01/23 02:45:52;;;;;;;;;;;2.10;99.90;;;;;;4998697;28;19956;-77
2021/01/23 02:48:19;;;;;;;;;;;2.10;99.90;;;;;;5003113;28;19926;-77
2021/01/23 02:50:46;;;;;;;;;;;2.20;99.90;;;;;;5001636;28;20029;-76
2021/01/23 02:53:12;;;;;;;;;;;2.20;99.90;;;;;;4997294;28;19933;-76
2021/01/23 02:55:39;;;;;;;;;;;2.20;99.90;;;;;;4996986;28;20250;-76
2021/01/23 02:58:06;;;;;;;;;;;2.10;99.90;;;;;;4996643;28;19936;-76
2021/01/23 03:00:32;;;;;;;;;;;2.00;99.90;;;;;;4996484;28;19932;-76
2021/01/23 03:02:59;;;;;;;;;;;1.90;99.90;;;;;;4996127;28;19926;-76
2021/01/23 03:05:26;;;;;;;;;;;1.90;99.90;;;;;;4996206;28;19949;-75
2021/01/23 03:07:52;;;;;;;;;;;1.80;99.90;;;;;;4996478;28;19926;-75
2021/01/23 03:10:19;;;;;;;;;;;1.80;99.90;;;;;;4996343;28;19925;-75
2021/01/23 03:12:45;;;;;;;;;;;1.70;99.90;;;;;;4995739;28;20012;-76
2021/01/23 03:15:13;;;;;;;;;;;1.70;99.90;;;;;;4996055;28;20274;-75
2021/01/23 03:17:39;;;;;;;;;;;1.70;99.90;;;;;;4995986;28;19926;-75
2021/01/23 03:20:06;;;;;;;;;;;1.70;99.90;;;;;;4995835;28;20383;-75
2021/01/23 03:22:33;;;;;;;;;;;1.80;99.90;;;;;;4996039;28;19926;-76
2021/01/23 03:25:00;;;;;;;;;;;1.80;99.90;;;;;;4995792;28;20347;-76
2021/01/23 03:27:26;;;;;;;;;;;1.90;99.90;;;;;;4995806;28;19937;-76
2021/01/23 03:29:52;;;;;;;;;;;1.80;99.90;;;;;;4995785;28;19937;-75
2021/01/23 03:32:19;;;;;;;;;;;1.90;99.90;;;;;;4995709;28;19926;-76
2021/01/23 03:34:45;;;;;;;;;;;1.90;99.90;;;;;;4995696;28;19992;-76
2021/01/23 03:37:11;;;;;;;;;;;2.00;99.90;;;;;;4995748;28;19937;-76
2021/01/23 03:39:39;;;;;;;;;;;2.00;99.90;;;;;;4995453;28;19936;-76
2021/01/23 03:42:05;;;;;;;;;;;2.00;99.90;;;;;;4995834;28;19936;-76
2021/01/23 03:44:32;;;;;;;;;;;2.10;99.90;;;;;;4995817;28;19942;-76
2021/01/23 03:46:58;;;;;;;;;;;2.10;99.90;;;;;;4996023;28;19934;-76
2021/01/23 03:49:24;;;;;;;;;;;2.10;99.90;;;;;;4995779;28;19934;-76
2021/01/23 03:51:50;;;;;;;;;;;2.10;99.90;;;;;;4995630;28;19936;-76
2021/01/23 03:54:17;;;;;;;;;;;2.10;99.90;;;;;;4995505;28;19953;-76
2021/01/23 03:56:44;;;;;;;;;;;2.10;99.90;;;;;;4995828;28;20258;-76
2021/01/23 03:59:10;;;;;;;;;;;2.10;99.90;;;;;;4995520;28;20313;-76
2021/01/23 04:01:37;;;;;;;;;;;2.10;99.90;;;;;;4995515;28;19975;-76
2021/01/23 04:04:03;;;;;;;;;;;2.10;99.90;;;;;;4995515;28;19926;-76
2021/01/23 04:06:30;;;;;;;;;;;2.10;99.90;;;;;;4995366;28;19933;-76
2021/01/23 04:08:56;;;;;;;;;;;2.10;99.90;;;;;;4995410;28;19926;-76
2021/01/23 04:11:22;;;;;;;;;;;2.10;99.90;;;;;;4995410;28;19936;-76
2021/01/23 04:13:50;;;;;;;;;;;2.10;99.90;;;;;;4995347;28;19926;-76
2021/01/23 04:16:16;;;;;;;;;;;2.10;99.90;;;;;;4995376;28;19925;-76
2021/01/23 04:18:42;;;;;;;;;;;2.10;99.90;;;;;;4995553;28;19926;-76
2021/01/23 04:21:09;;;;;;;;;;;2.10;99.90;;;;;;4995294;28;19926;-76
2021/01/23 04:23:36;;;;;;;;;;;2.10;99.90;;;;;;4997023;28;19934;-76
2021/01/23 04:26:02;;;;;;;;;;;2.10;99.90;;;;;;4999154;28;19937;-76
2021/01/23 04:28:29;;;;;;;;;;;2.10;99.90;;;;;;4999307;28;19925;-76
2021/01/23 04:30:56;;;;;;;;;;;2.10;99.90;;;;;;5001824;28;19948;-76
2021/01/23 04:33:22;;;;;;;;;;;2.10;99.90;;;;;;5000809;28;19925;-76
2021/01/23 04:35:48;;;;;;;;;;;2.10;99.90;;;;;;4999412;28;20395;-77
2021/01/23 04:38:15;;;;;;;;;;;2.10;99.90;;;;;;5000195;28;19956;-77
2021/01/23 04:40:41;;;;;;;;;;;2.00;99.90;;;;;;4999880;28;19926;-77
2021/01/23 04:43:09;;;;;;;;;;;2.00;99.90;;;;;;5000692;28;19953;-76
2021/01/23 04:45:35;;;;;;;;;;;2.00;99.90;;;;;;5000348;28;20389;-76
2021/01/23 04:48:02;;;;;;;;;;;2.00;99.90;;;;;;5000414;28;19925;-76
2021/01/23 04:50:29;;;;;;;;;;;2.00;99.90;;;;;;5000468;28;19925;-77
2021/01/23 04:52:55;;;;;;;;;;;2.00;99.90;;;;;;5000357;28;19938;-77
2021/01/23 04:55:21;;;;;;;;;;;2.00;99.90;;;;;;5000917;28;19926;-77
2021/01/23 04:57:48;;;;;;;;;;;2.10;99.90;;;;;;5000661;28;19936;-77
2021/01/23 05:00:14;;;;;;;;;;;2.10;99.90;;;;;;5000908;28;19926;-77
2021/01/23 05:02:41;;;;;;;;;;;2.10;99.90;;;;;;4999452;28;20339;-77
2021/01/23 05:05:08;;;;;;;;;;;2.10;99.90;;;;;;4999509;28;20355;-76
2021/01/23 05:07:35;;;;;;;;;;;2.20;99.90;;;;;;4999345;28;20080;-76
2021/01/23 05:10:14;;;;;;;;;;;2.20;99.90;;;;;;4999983;28;19936;-77
2021/01/23 05:12:41;;;;;;;;;;;2.20;99.90;;;;;;5000453;28;19944;-77
2021/01/23 05:15:08;;;;;;;;;;;2.20;99.90;;;;;;4999600;28;19936;-77
2021/01/23 05:17:48;;;;;;;;;;;2.20;99.90;;;;;;5000232;28;19930;-77
2021/01/23 05:20:21;;;;;;;;;;;2.20;99.90;;;;;;4999909;28;19957;-77
2021/01/23 05:22:48;;;;;;;;;;;2.20;99.90;;;;;;5000466;28;20376;-77
2021/01/23 05:25:14;;;;;;;;;;;2.20;99.90;;;;;;5000470;28;19932;-77
2021/01/23 05:27:44;;;;;;;;;;;2.20;99.90;;;;;;5000329;28;19925;-77
2021/01/23 05:30:11;;;;;;;;;;;2.30;99.90;;;;;;5000180;28;19926;-77
2021/01/23 05:32:38;;;;;;;;;;;2.30;99.90;;;;;;4999939;28;19932;-77
2021/01/23 05:35:12;;;;;;;;;;;2.30;99.90;;;;;;4999764;28;19929;-77
2021/01/23 05:37:39;;;;;;;;;;;2.30;99.90;;;;;;5000083;28;19936;-77
2021/01/23 05:40:07;;;;;;;;;;;2.30;99.90;;;;;;5000023;28;19941;-77
2021/01/23 05:42:40;;;;;;;;;;;2.30;99.90;;;;;;4999085;28;19926;-76
2021/01/23 05:45:08;;;;;;;;;;;2.30;99.90;;;;;;4999373;28;19934;-77
2021/01/23 05:47:34;;;;;;;;;;;2.30;99.90;;;;;;4999485;28;19956;-77
2021/01/23 05:50:01;;;;;;;;;;;2.30;99.90;;;;;;4999754;28;19926;-77
2021/01/23 05:52:27;;;;;;;;;;;2.30;99.90;;;;;;4999837;28;19926;-77
2021/01/23 05:54:55;;;;;;;;;;;2.30;99.90;;;;;;5000051;28;19925;-77
2021/01/23 05:57:21;;;;;;;;;;;2.30;99.90;;;;;;4999271;28;19930;-77
2021/01/23 05:59:47;;;;;;;;;;;2.20;99.90;;;;;;4999320;28;19929;-77
2021/01/23 06:02:14;;;;;;;;;;;2.30;99.90;;;;;;4999407;28;19937;-77
2021/01/23 06:04:42;;;;;;;;;;;2.30;99.90;;;;;;4999337;28;19930;-77
2021/01/23 06:07:08;;;;;;;;;;;2.30;99.90;;;;;;4999726;28;19945;-77
2021/01/23 06:09:35;;;;;;;;;;;2.30;99.90;;;;;;4999468;28;19930;-77
2021/01/23 06:12:03;;;;;;;;;;;2.30;99.90;;;;;;4999228;28;19934;-77
2021/01/23 06:14:36;;;;;;;;;;;2.30;99.90;;;;;;4999351;28;20270;-77
2021/01/23 06:17:02;;;;;;;;;;;2.30;99.90;;;;;;4999547;28;19948;-76
2021/01/23 06:19:38;;;;;;;;;;;2.30;99.90;;;;;;4999765;28;19926;-77
2021/01/23 06:22:04;;;;;;;;;;;2.30;99.90;;;;;;4999722;28;19934;-77
2021/01/23 06:24:50;;;;;;;;;;;2.30;99.90;;;;;;4999514;28;19925;-77
2021/01/23 06:27:17;;;;;;;;;;;2.30;99.90;;;;;;4999687;28;19996;-77
2021/01/23 06:29:44;;;;;;;;;;;2.30;99.90;;;;;;4999628;28;20310;-77
2021/01/23 06:32:28;;;;;;;;;;;2.30;99.90;;;;;;4999179;28;19926;-77
2021/01/23 06:34:55;;;;;;;;;;;2.40;99.90;;;;;;4999486;28;19926;-77
2021/01/23 06:37:22;;;;;;;;;;;2.40;99.90;;;;;;4998755;28;20374;-77
2021/01/23 06:40:04;;;;;;;;;;;2.40;99.90;;;;;;4998937;28;19926;-77
2021/01/23 06:42:32;;;;;;;;;;;2.40;99.90;;;;;;4998047;28;19932;-77
2021/01/23 06:45:10;;;;;;;;;;;2.40;99.90;;;;;;4998093;28;19926;-77
2021/01/23 06:47:38;;;;;;;;;;;2.50;99.90;;;;;;4997212;28;19930;-77
2021/01/23 06:50:04;;;;;;;;;;;2.40;99.90;;;;;;4998339;28;19995;-77
2021/01/23 06:52:31;;;;;;;;;;;2.40;99.90;;;;;;4998295;28;19926;-77
2021/01/23 06:54:57;;;;;;;;;;;2.40;99.90;;;;;;4998309;28;19937;-77
2021/01/23 06:57:23;;;;;;;;;;;2.40;99.90;;;;;;4998495;28;19988;-77
2021/01/23 06:59:51;;;;;;;;;;;2.40;99.90;;;;;;4998382;28;20016;-77
2021/01/23 07:02:17;;;;;;;;;;;2.40;99.90;;;;;;4997954;28;19932;-77
2021/01/23 07:04:44;;;;;;;;;;;2.40;99.90;;;;;;4997840;28;19925;-77
2021/01/23 07:07:11;;;;;;;;;;;2.40;99.90;;;;;;4998095;28;20380;-77
2021/01/23 07:09:44;;;;;;;;;;;2.30;99.90;;;;;;4997975;28;19936;-77
2021/01/23 07:12:10;;;;;;;;;;;2.40;99.90;;;;;;4997275;28;19926;-77
2021/01/23 07:14:36;;;;;;;;;;;2.40;99.90;;;;;;4998103;28;19937;-77
2021/01/23 07:17:04;;;;;;;;;;;2.40;99.90;;;;;;4997969;28;19926;-77
2021/01/23 07:19:30;;;;;;;;;;;2.40;99.90;;;;;;4997890;28;19926;-77
2021/01/23 07:21:56;;;;;;;;;;;2.40;99.90;;;;;;4997595;28;20329;-77
2021/01/23 07:24:23;;;;;;;;;;;2.40;99.90;;;;;;4997785;28;20240;-77
2021/01/23 07:26:49;;;;;;;;;;;2.40;99.90;;;;;;4996682;28;20357;-77
2021/01/23 07:29:15;;;;;;;;;;;2.40;99.90;;;;;;4996883;28;20347;-76
2021/01/23 07:31:42;;;;;;;;;;;2.40;99.90;;;;;;4996841;28;19926;-77
2021/01/23 07:34:12;;;;;;;;;;;2.40;99.90;;;;;;4997219;28;19926;-76
2021/01/23 07:36:39;;;;;;;;;;;2.40;99.90;;;;;;4999061;28;19936;-75
2021/01/23 07:39:09;;;;;;;;;;;2.40;99.90;;;;;;4995670;28;19956;-75
2021/01/23 07:41:35;;;;;;;;;;;2.40;99.90;;;;;;4996849;28;19926;-76
2021/01/23 07:44:02;;;;;;;;;;;2.40;99.90;;;;;;4995667;28;19926;-75
2021/01/23 07:46:33;;;;;;;;;;;2.40;99.90;;;;;;4995902;28;19926;-75
2021/01/23 07:48:59;;;;;;;;;;;2.40;99.90;;;;;;4995844;28;19932;-75
2021/01/23 07:51:27;;;;;;;;;;;2.40;99.90;;;;;;4995453;28;20087;-75
2021/01/23 07:54:14;;;;;;;;;;;2.50;99.90;;;;;;4995556;28;19926;-75
2021/01/23 07:56:50;;;;;;;;;;;2.40;99.90;;;;;;4989272;28;19926;-75
2021/01/23 07:59:16;;;;;;;;;;;2.40;99.90;;;;;;5001261;28;19930;-75
2021/01/23 08:01:43;;;;;;;;;;;2.40;99.90;;;;;;5002075;28;19926;-75
2021/01/23 08:04:24;;;;;;;;;;;2.40;99.90;;;;;;5001361;28;19932;-75
2021/01/23 08:06:51;;;;;;;;;;;2.40;99.90;;;;;;5002226;28;19925;-74
2021/01/23 08:09:18;;;;;;;;;;;2.40;99.90;;;;;;4998857;28;19925;-74
2021/01/23 08:11:44;;;;;;;;;;;2.40;99.90;;;;;;5002516;28;20314;-73
2021/01/23 08:14:10;;;;;;;;;;;2.40;99.90;;;;;;5002177;28;20356;-74
2021/01/23 08:16:49;;;;;;;;;;;2.40;99.90;;;;;;5002572;28;20239;-74
2021/01/23 08:19:16;;;;;;;;;;;2.50;99.90;;;;;;5002147;28;20354;-74
2021/01/23 08:21:42;;;;;;;;;;;2.50;99.90;;;;;;5001756;28;19952;-73
2021/01/23 08:24:23;;;;;;;;;;;2.50;99.90;;;;;;5002403;28;19932;-74
2021/01/23 08:26:50;;;;;;;;;;;2.50;99.90;;;;;;5001153;28;19926;-74
2021/01/23 08:29:18;;;;;;;;;;;2.50;99.90;;;;;;5002021;28;20388;-76
2021/01/23 08:31:58;;;;;;;;;;;2.50;99.90;;;;;;5001806;28;19936;-75
2021/01/23 08:34:24;;;;;;;;;;;2.50;99.90;;;;;;5001671;28;19926;-75
2021/01/23 08:36:50;;;;;;;;;;;2.50;99.90;;;;;;5001971;28;19926;-74
2021/01/23 08:39:17;;;;;;;;;;;2.50;99.90;;;;;;5001593;28;19984;-75
2021/01/23 08:41:43;;;;;;;;;;;2.50;99.90;;;;;;5001880;28;19926;-74
2021/01/23 08:44:10;;;;;;;;;;;2.50;99.90;;;;;;5001956;28;19925;-74
2021/01/23 08:46:37;;;;;;;;;;;2.50;99.90;;;;;;5001605;28;19925;-74
2021/01/23 08:49:03;;;;;;;;;;;2.40;99.90;;;;;;5001666;28;19926;-74
2021/01/23 08:51:30;;;;;;;;;;;2.40;99.90;;;;;;5001513;28;19936;-74
2021/01/23 08:53:56;;;;;;;;;;;2.50;99.90;;;;;;5001965;28;19930;-74
2021/01/23 08:56:22;;;;;;;;;;;2.50;99.90;;;;;;5001780;28;19957;-74
2021/01/23 08:58:49;;;;;;;;;;;2.50;99.90;;;;;;5001859;28;19930;-74
2021/01/23 09:01:16;;;;;;;;;;;2.50;99.90;;;;;;5001714;28;19937;-74
2021/01/23 09:03:42;;;;;;;;;;;2.40;99.90;;;;;;5001361;28;20362;-74
2021/01/23 09:06:09;;;;;;;;;;;2.50;99.90;;;;;;5001446;28;19925;-74
2021/01/23 09:08:35;;;;;;;;;;;2.40;99.90;;;;;;5001570;28;19988;-74
2021/01/23 09:11:02;;;;;;;;;;;2.50;99.90;;;;;;4997824;28;19956;-75
2021/01/23 09:13:28;;;;;;;;;;;2.50;99.90;;;;;;4998649;28;19936;-74
2021/01/23 09:15:54;;;;;;;;;;;2.50;99.90;;;;;;4998519;28;19926;-74
2021/01/23 09:18:21;;;;;;;;;;;2.40;99.90;;;;;;4998473;28;19926;-74
2021/01/23 09:20:48;;;;;;;;;;;2.40;99.90;;;;;;4998166;28;19948;-74
2021/01/23 09:23:14;;;;;;;;;;;2.30;99.90;;;;;;4998148;28;20357;-74
2021/01/23 09:25:42;;;;;;;;;;;2.20;99.90;;;;;;4998096;28;19936;-74
2021/01/23 09:28:08;;;;;;;;;;;2.10;99.90;;;;;;4997994;28;19952;-75
2021/01/23 09:30:34;;;;;;;;;;;1.90;99.90;;;;;;4998302;28;19960;-75
2021/01/23 09:33:01;;;;;;;;;;;1.80;99.90;;;;;;4998187;28;19936;-75
2021/01/23 09:35:28;;;;;;;;;;;1.70;99.90;;;;;;4998177;28;19926;-75
2021/01/23 09:37:54;;;;;;;;;;;1.60;99.90;;;;;;4998169;28;20232;-75
2021/01/23 09:40:21;;;;;;;;;;;1.60;99.90;;;;;;4997449;28;20357;-75
2021/01/23 09:42:47;;;;;;;;;;;1.50;99.90;;;;;;4997950;28;20003;-75
2021/01/23 09:45:14;;;;;;;;;;;1.50;99.90;;;;;;4997874;28;20306;-75
2021/01/23 09:47:40;;;;;;;;;;;1.40;99.90;;;;;;4997792;28;19926;-75
2021/01/23 09:50:07;;;;;;;;;;;1.40;99.90;;;;;;4997664;28;19936;-75
2021/01/23 09:52:34;;;;;;;;;;;1.40;99.90;;;;;;4997854;28;20270;-75
2021/01/23 09:55:01;;;;;;;;;;;1.30;99.90;;;;;;4997643;28;19930;-75
2021/01/23 09:57:27;;;;;;;;;;;1.40;99.90;;;;;;4997543;28;19926;-75
2021/01/23 09:59:53;;;;;;;;;;;1.40;99.90;;;;;;4997515;28;20029;-75
2021/01/23 10:02:20;;;;;;;;;;;1.40;99.90;;;;;;4997299;28;19972;-75
2021/01/23 10:04:46;;;;;;;;;;;1.40;99.90;;;;;;4997380;28;19991;-75
2021/01/23 10:07:12;;;;;;;;;;;1.40;99.90;;;;;;4997379;28;19926;-76
2021/01/23 10:09:40;;;;;;;;;;;1.40;99.90;;;;;;4997450;28;19925;-76
2021/01/23 10:12:06;;;;;;;;;;;1.40;99.90;;;;;;4997378;28;19940;-76
2021/01/23 10:14:33;;;;;;;;;;;1.40;99.90;;;;;;4997181;28;19976;-76
2021/01/23 10:16:59;;;;;;;;;;;1.40;99.90;;;;;;4997143;28;20361;-76
2021/01/23 10:19:25;;;;;;;;;;;1.50;99.90;;;;;;4997428;28;20401;-77
2021/01/23 10:21:52;;;;;;;;;;;1.50;99.90;;;;;;4996855;28;20351;-75
2021/01/23 10:24:18;;;;;;;;;;;1.40;99.90;;;;;;4997079;28;19925;-75
2021/01/23 10:26:45;;;;;;;;;;;1.50;99.90;;;;;;4996967;28;19926;-75
2021/01/23 10:29:12;;;;;;;;;;;1.50;99.90;;;;;;4996981;28;19932;-75
2021/01/23 10:31:38;;;;;;;;;;;1.60;99.90;;;;;;4996860;28;19936;-75
2021/01/23 10:34:05;;;;;;;;;;;1.60;99.90;;;;;;4996862;28;19930;-75
2021/01/23 10:36:31;;;;;;;;;;;1.60;99.90;;;;;;4996813;28;20020;-75
2021/01/23 10:38:57;;;;;;;;;;;1.60;99.90;;;;;;4996600;28;19932;-75
2021/01/23 10:41:24;;;;;;;;;;;1.70;99.90;;;;;;4996620;28;19926;-75
2021/01/23 10:43:51;;;;;;;;;;;1.70;99.90;;;;;;4996735;28;19933;-75
2021/01/23 10:46:17;;;;;;;;;;;1.70;99.90;;;;;;4996634;28;19925;-74
2021/01/23 10:48:43;;;;;;;;;;;1.60;99.90;;;;;;4996869;28;20025;-74
2021/01/23 10:51:10;;;;;;;;;;;1.60;99.90;;;;;;4996768;28;19948;-75
2021/01/23 10:53:36;;;;;;;;;;;1.60;99.90;;;;;;4996589;28;19929;-75
2021/01/23 10:56:03;;;;;;;;;;;1.60;99.90;;;;;;4996513;28;19933;-75
2021/01/23 10:58:29;;;;;;;;;;;1.60;99.90;;;;;;4996378;28;19926;-75
2021/01/23 11:00:56;;;;;;;;;;;1.50;99.90;;;;;;4996264;28;19941;-75
2021/01/23 11:03:23;;;;;;;;;;;1.40;99.90;;;;;;4996338;28;19936;-75
2021/01/23 11:05:51;;;;;;;;;;;1.30;99.90;;;;;;4996243;28;19926;-75
2021/01/23 11:08:17;;;;;;;;;;;1.30;99.90;;;;;;4996472;28;19984;-76
2021/01/23 11:10:44;;;;;;;;;;;1.30;99.90;;;;;;4996365;28;19925;-75
2021/01/23 11:13:10;;;;;;;;;;;1.20;99.90;;;;;;4996074;28;19925;-76
2021/01/23 11:15:36;;;;;;;;;;;1.20;99.90;;;;;;4996401;28;19938;-75
2021/01/23 11:18:03;;;;;;;;;;;1.20;99.90;;;;;;4996257;28;19926;-75
2021/01/23 11:20:30;;;;;;;;;;;1.20;99.90;;;;;;4996192;28;19936;-76
2021/01/23 11:22:56;;;;;;;;;;;1.20;99.90;;;;;;4996058;28;19930;-76
2021/01/23 11:25:23;;;;;;;;;;;1.30;99.90;;;;;;4996308;28;19934;-76
2021/01/23 11:27:50;;;;;;;;;;;1.30;99.90;;;;;;4995858;28;20314;-76
2021/01/23 11:30:17;;;;;;;;;;;1.30;99.90;;;;;;4996170;28;19929;-76
2021/01/23 11:32:43;;;;;;;;;;;1.30;99.90;;;;;;4995560;28;19936;-76
2021/01/23 11:35:11;;;;;;;;;;;1.30;99.90;;;;;;4996038;28;19936;-76
2021/01/23 11:37:37;;;;;;;;;;;1.30;99.90;;;;;;4995882;28;20381;-77
2021/01/23 11:40:03;;;;;;;;;;;1.30;99.90;;;;;;4995695;28;20346;-77
2021/01/23 11:42:30;;;;;;;;;;;1.40;99.90;;;;;;4996041;28;19926;-76
2021/01/23 11:44:56;;;;;;;;;;;1.40;99.90;;;;;;4995906;28;19936;-77
2021/01/23 11:47:22;;;;;;;;;;;1.40;99.90;;;;;;4996223;28;19926;-76
2021/01/23 11:49:49;;;;;;;;;;;1.40;99.90;;;;;;4995547;28;19925;-76
2021/01/23 11:52:16;;;;;;;;;;;1.50;99.90;;;;;;4995555;28;19932;-76
2021/01/23 11:54:42;;;;;;;;;;;1.50;99.90;;;;;;4995655;28;19932;-75
2021/01/23 11:57:09;;;;;;;;;;;1.50;99.90;;;;;;4995620;28;19936;-75
2021/01/23 11:59:35;;;;;;;;;;;1.50;99.90;;;;;;4996056;28;19952;-74
2021/01/23 12:02:01;;;;;;;;;;;1.50;99.90;;;;;;4995415;28;19981;-74
2021/01/23 12:04:28;;;;;;;;;;;1.60;99.90;;;;;;4993691;28;19926;-74
2021/01/23 12:06:54;;;;;;;;;;;1.60;99.90;;;;;;4982282;28;19926;-74
2021/01/23 12:09:21;;;;;;;;;;;1.60;99.90;;;;;;4991954;28;20347;-74
2021/01/23 12:11:48;;;;;;;;;;;1.70;99.90;;;;;;4993639;28;19925;-74
2021/01/23 12:14:14;;;;;;;;;;;1.70;99.90;;;;;;4995138;28;19926;-74
2021/01/23 12:16:41;;;;;;;;;;;1.70;99.90;;;;;;4995237;28;19940;-74
2021/01/23 12:19:08;;;;;;;;;;;1.80;99.90;;;;;;4995191;28;19929;-74
2021/01/23 12:21:34;;;;;;;;;;;1.90;99.90;;;;;;5010283;28;19932;-74
2021/01/23 12:24:00;;;;;;;;;;;1.90;99.90;;;;;;5014782;28;19932;-74
2021/01/23 12:26:28;;;;;;;;;;;1.90;99.90;;;;;;5014918;28;19941;-74
2021/01/23 12:28:54;;;;;;;;;;;1.90;99.90;;;;;;5014936;28;19926;-74
2021/01/23 12:31:20;;;;;;;;;;;1.90;99.90;;;;;;5011308;28;19988;-74
2021/01/23 12:33:47;;;;;;;;;;;1.90;99.90;;;;;;4995248;28;19930;-74
2021/01/23 12:36:13;;;;;;;;;;;1.90;99.90;;;;;;4995286;28;20016;-74
2021/01/23 12:38:39;;;;;;;;;;;1.90;99.90;;;;;;4994698;28;19977;-74
2021/01/23 12:41:06;;;;;;;;;;;2.00;99.90;;;;;;4994440;28;19996;-74
2021/01/23 12:43:33;;;;;;;;;;;2.00;99.90;;;;;;4995156;28;19926;-74
2021/01/23 12:45:59;;;;;;;;;;;2.00;99.90;;;;;;4997716;28;19926;-74
2021/01/23 12:48:25;;;;;;;;;;;2.10;99.90;;;;;;4999186;28;19926;-74
2021/01/23 12:50:52;;;;;;;;;;;2.10;99.90;;;;;;4998893;28;20266;-74
2021/01/23 12:53:18;;;;;;;;;;;2.10;99.90;;;;;;4999972;28;19926;-73
2021/01/23 12:55:44;;;;;;;;;;;2.20;99.90;;;;;;4998946;28;19925;-75
2021/01/23 12:58:11;;;;;;;;;;;2.20;99.90;;;;;;4998658;28;19926;-74
2021/01/23 13:00:38;;;;;;;;;;;2.30;99.90;;;;;;4998921;28;19983;-78
2021/01/23 13:03:05;;;;;;;;;;;2.30;99.90;;;;;;4998535;28;19980;-76
2021/01/23 13:05:31;;;;;;;;;;;2.30;99.90;;;;;;4998693;28;19926;-73
2021/01/23 13:07:57;;;;;;;;;;;2.40;99.90;;;;;;4998766;28;19929;-75
2021/01/23 13:10:24;;;;;;;;;;;2.40;99.90;;;;;;4999229;28;19941;-74
2021/01/23 13:12:51;;;;;;;;;;;2.40;99.90;;;;;;4998910;28;19930;-74
2021/01/23 13:15:18;;;;;;;;;;;2.40;99.90;;;;;;4998271;28;19992;-74
2021/01/23 13:17:45;;;;;;;;;;;2.40;99.90;;;;;;4998391;28;19926;-74
2021/01/23 13:20:11;;;;;;;;;;;2.40;99.90;;;;;;4997824;28;19926;-74
2021/01/23 13:22:38;;;;;;;;;;;2.40;99.90;;;;;;4998132;28;20277;-74
2021/01/23 13:25:04;;;;;;;;;;;2.40;99.90;;;;;;4998092;28;20378;-74
2021/01/23 13:27:31;;;;;;;;;;;2.40;99.90;;;;;;4998209;28;19992;-74
2021/01/23 13:29:57;;;;;;;;;;;2.40;99.90;;;;;;4998020;28;19937;-74
2021/01/23 13:32:23;;;;;;;;;;;2.50;99.90;;;;;;4998023;28;19932;-74
2021/01/23 13:34:51;;;;;;;;;;;2.40;99.90;;;;;;4998061;28;19932;-74
2021/01/23 13:37:17;;;;;;;;;;;2.40;99.90;;;;;;4998147;28;19936;-74
2021/01/23 13:39:43;;;;;;;;;;;2.40;99.90;;;;;;4997786;28;19926;-74
2021/01/23 13:42:10;;;;;;;;;;;2.30;99.90;;;;;;4998022;28;19926;-74
2021/01/23 13:44:36;;;;;;;;;;;2.30;99.90;;;;;;4997932;28;20003;-74
2021/01/23 13:47:02;;;;;;;;;;;2.40;99.90;;;;;;4997743;28;20309;-74
2021/01/23 13:49:29;;;;;;;;;;;2.40;99.90;;;;;;4997728;28;20355;-74
2021/01/23 13:51:56;;;;;;;;;;;2.40;99.90;;;;;;4997615;28;20358;-74
2021/01/23 13:54:22;;;;;;;;;;;2.30;99.90;;;;;;4997592;28;19937;-74
2021/01/23 13:56:48;;;;;;;;;;;2.40;99.90;;;;;;4997070;28;19926;-74
2021/01/23 13:59:15;;;;;;;;;;;2.30;99.90;;;;;;4997486;28;19988;-74
2021/01/23 14:01:41;;;;;;;;;;;2.40;99.90;;;;;;4997490;28;19980;-73
2021/01/23 14:04:07;;;;;;;;;;;2.40;99.90;;;;;;4997357;28;19997;-74
2021/01/23 14:06:34;;;;;;;;;;;2.30;99.90;;;;;;4997389;28;20174;-73
2021/01/23 14:09:01;;;;;;;;;;;2.40;99.90;;;;;;4997496;28;19926;-74
2021/01/23 14:11:27;;;;;;;;;;;2.40;99.90;;;;;;4997345;28;19940;-74
2021/01/23 14:13:54;;;;;;;;;;;2.30;99.90;;;;;;4998228;28;19937;-75
2021/01/23 14:16:20;;;;;;;;;;;2.30;99.90;;;;;;4999698;28;19932;-74
2021/01/23 14:18:46;;;;;;;;;;;2.30;99.90;;;;;;4997260;28;19930;-74
2021/01/23 14:21:13;;;;;;;;;;;2.30;99.90;;;;;;4997366;28;19949;-74
2021/01/23 14:23:39;;;;;;;;;;;2.30;99.90;;;;;;4997323;28;20278;-74
2021/01/23 14:26:06;;;;;;;;;;;2.30;99.90;;;;;;4996884;28;20373;-74
2021/01/23 14:28:33;;;;;;;;;;;2.20;99.90;;;;;;4996789;28;19934;-74
2021/01/23 14:30:59;;;;;;;;;;;2.30;99.90;;;;;;4996828;28;20020;-75